Time;durP1;ratioP1;P1;durP2;ratioP2;P2;SDS_P1;SDS_P2;PMS_P1;PMS_P2;Temp;Humidity;BMP_temperature;BMP_pressure;BME280_temperature;BME280_humidity;BME280_pressure;Samples;Min_cycle;Max_cycle;Signal;HPM_P1;HPM_P2
2021/07/31 00:00:31;;;;;;;6.80;5.82;;;;;;;21.61;67.20;98573.19;3366748;29;20567;-79
2021/07/31 00:02:12;;;;;;;6.77;6.07;;;;;;;21.58;67.03;98568.34;3373523;29;20059;-74
2021/07/31 00:03:52;;;;;;;7.87;6.03;;;;;;;21.62;67.26;98568.59;3361957;29;20053;-77
2021/07/31 00:05:34;;;;;;;9.50;5.55;;;;;;;21.62;67.07;98563.16;3373220;29;20143;-74
2021/07/31 00:07:15;;;;;;;7.17;5.20;;;;;;;21.62;67.09;98569.38;3375913;29;20520;-74
2021/07/31 00:08:56;;;;;;;6.97;5.13;;;;;;;21.60;66.98;98565.34;3376048;29;20059;-76
2021/07/31 00:10:36;;;;;;;8.03;6.00;;;;;;;21.62;67.10;98572.09;3362107;29;20281;-77
2021/07/31 00:12:17;;;;;;;5.97;5.33;;;;;;;21.60;66.96;98571.56;3373490;29;20044;-77
2021/07/31 00:13:58;;;;;;;5.77;5.07;;;;;;;21.61;66.95;98570.50;3375777;29;20068;-75
2021/07/31 00:15:38;;;;;;;8.17;5.83;;;;;;;21.59;67.22;98571.88;3376040;29;20052;-74
2021/07/31 00:17:19;;;;;;;7.47;5.80;;;;;;;21.56;67.11;98567.84;3375962;29;20416;-75
2021/07/31 00:19:00;;;;;;;8.33;6.00;;;;;;;21.51;67.19;98562.50;3375789;29;20104;-74
2021/07/31 00:20:41;;;;;;;6.47;5.77;;;;;;;21.49;67.23;98565.50;3375577;29;20135;-75
2021/07/31 00:22:21;;;;;;;7.70;5.57;;;;;;;21.46;67.41;98568.81;3376346;29;20416;-76
2021/07/31 00:24:02;;;;;;;12.93;6.00;;;;;;;21.42;67.31;98566.97;3375434;29;20036;-78
2021/07/31 00:25:44;;;;;;;7.50;5.60;;;;;;;21.41;67.15;98565.38;3375899;29;20504;-75
2021/07/31 00:27:25;;;;;;;8.57;5.75;;;;;;;21.37;67.25;98562.38;3375470;29;20052;-77
2021/07/31 00:29:06;;;;;;;6.87;5.77;;;;;;;21.37;67.45;98562.38;3375730;29;20449;-75
2021/07/31 00:30:47;;;;;;;7.10;5.33;;;;;;;21.38;67.40;98563.22;3366371;29;20081;-76
2021/07/31 00:32:28;;;;;;;6.10;5.50;;;;;;;21.37;67.35;98565.09;3367430;29;20112;-77
2021/07/31 00:34:08;;;;;;;10.97;6.93;;;;;;;21.31;67.52;98550.81;3362866;29;20053;-75
2021/07/31 00:35:49;;;;;;;5.70;5.10;;;;;;;21.29;67.54;98553.00;3362947;29;20045;-73
2021/07/31 00:37:30;;;;;;;8.43;5.67;;;;;;;21.24;67.61;98553.09;3365503;29;20162;-75
2021/07/31 00:39:10;;;;;;;8.87;6.10;;;;;;;21.22;67.94;98555.31;3371001;29;20059;-75
2021/07/31 00:40:51;;;;;;;8.23;5.50;;;;;;;21.24;67.69;98563.94;3375122;29;20059;-73
2021/07/31 00:42:32;;;;;;;7.67;5.37;;;;;;;21.24;67.80;98566.63;3361872;29;20543;-75
2021/07/31 00:44:12;;;;;;;13.20;6.10;;;;;;;21.20;67.70;98557.50;3372748;29;20044;-74
2021/07/31 00:45:53;;;;;;;6.50;5.27;;;;;;;21.20;67.57;98560.22;3361821;29;20044;-75
2021/07/31 00:47:34;;;;;;;7.10;5.73;;;;;;;21.17;67.62;98566.22;3346093;29;20045;-75
2021/07/31 00:49:14;;;;;;;6.70;5.00;;;;;;;21.17;67.76;98563.50;3358348;29;20083;-75
2021/07/31 00:50:55;;;;;;;8.35;5.57;;;;;;;21.15;67.70;98565.69;3359246;29;20067;-75
2021/07/31 00:52:37;;;;;;;6.63;5.03;;;;;;;21.16;67.68;98567.28;3346404;29;20049;-73
2021/07/31 00:54:19;;;;;;;7.78;5.60;;;;;;;21.15;67.63;98565.69;3357072;29;20493;-75
2021/07/31 00:56:00;;;;;;;7.43;4.93;;;;;;;21.12;67.79;98566.28;3346274;29;20117;-75
2021/07/31 00:57:42;;;;;;;6.65;5.18;;;;;;;21.09;67.94;98573.09;3356645;29;20105;-74
2021/07/31 00:59:41;;;;;;;8.80;5.40;;;;;;;21.06;67.86;98567.44;3348542;29;20102;-75
2021/07/31 01:01:23;;;;;;;7.53;5.30;;;;;;;20.99;67.72;98562.38;3362440;29;20052;-75
2021/07/31 01:03:03;;;;;;;9.80;5.97;;;;;;;21.00;67.93;98563.19;3371609;29;20297;-75
2021/07/31 01:04:44;;;;;;;8.93;6.15;;;;;;;21.01;68.10;98564.78;3361383;29;20063;-74
2021/07/31 01:06:25;;;;;;;7.72;5.60;;;;;;;21.02;68.03;98561.00;3348587;29;20052;-75
2021/07/31 01:08:06;;;;;;;8.77;5.80;;;;;;;21.00;68.18;98571.31;3356503;29;20057;-75
2021/07/31 01:09:47;;;;;;;9.52;5.68;;;;;;;21.01;68.09;98575.63;3359204;29;20104;-74
2021/07/31 01:11:27;;;;;;;6.73;5.83;;;;;;;20.97;68.00;98569.19;3372916;29;20040;-75
2021/07/31 01:13:14;;;;;;;6.82;5.25;;;;;;;20.96;68.15;98567.56;3363729;29;20048;-74
2021/07/31 01:14:55;;;;;;;;;;;;;;;21.00;67.86;98574.81;3362201;29;20427;-73
2021/07/31 01:16:36;;;;;;;7.68;5.15;;;;;;;20.96;67.95;98567.56;3376866;29;19930;-75
2021/07/31 01:18:16;;;;;;;7.23;4.97;;;;;;;20.95;67.94;98571.38;3380012;29;20040;-73
2021/07/31 01:19:57;;;;;;;11.63;6.03;;;;;;;20.95;67.97;98565.97;3365370;29;20045;-75
2021/07/31 01:21:43;;;;;;;7.50;5.23;;;;;;;20.94;68.14;98559.75;3362357;29;20075;-74
2021/07/31 01:23:47;;;;;;;6.68;5.25;;;;;;;20.90;67.96;98564.91;3361588;29;20454;-74
2021/07/31 01:25:28;;;;;;;6.50;5.80;;;;;;;20.90;68.00;98566.81;3375206;29;20044;-75
2021/07/31 01:27:09;;;;;;;6.60;5.68;;;;;;;20.88;68.18;98567.13;3377924;29;20049;-76
2021/07/31 01:28:50;;;;;;;7.43;5.20;;;;;;;20.87;68.29;98573.63;3378068;29;20445;-75
2021/07/31 01:30:32;;;;;;;6.97;6.03;;;;;;;20.85;68.12;98561.47;3363559;29;20048;-75
2021/07/31 01:32:13;;;;;;;7.60;5.73;;;;;;;20.86;68.20;98563.91;3363923;29;20140;-75
2021/07/31 01:33:55;;;;;;;;;;;;;;;20.90;68.02;98559.50;3375302;29;20048;-77
2021/07/31 01:35:36;;;;;;;7.72;5.53;;;;;;;20.81;68.04;98569.38;3363981;29;19923;-77
2021/07/31 01:37:30;;;;;;;6.60;4.82;;;;;;;20.79;68.17;98568.84;3362753;29;20540;-76
2021/07/31 01:39:11;;;;;;;7.50;4.70;;;;;;;20.78;68.28;98574.53;3361307;29;20513;-75
2021/07/31 01:40:51;;;;;;;10.93;5.13;;;;;;;20.75;68.27;98570.50;3357874;29;20041;-74
2021/07/31 01:42:32;;;;;;;6.87;5.30;;;;;;;20.75;68.33;98570.50;3351108;29;20070;-75
2021/07/31 01:44:13;;;;;;;6.18;4.93;;;;;;;20.70;68.28;98570.56;3362090;29;20421;-75
2021/07/31 01:45:54;;;;;;;6.03;5.05;;;;;;;20.74;68.41;98573.53;3350546;29;20041;-76
2021/07/31 01:47:35;;;;;;;8.03;5.80;;;;;;;20.72;68.33;98573.81;3348399;29;20041;-76
2021/07/31 01:49:18;;;;;;;8.73;5.40;;;;;;;20.71;68.40;98571.41;3349025;29;20167;-75
2021/07/31 01:51:07;;;;;;;7.40;5.20;;;;;;;20.69;68.32;98579.81;3349699;29;20529;-75
2021/07/31 01:52:48;;;;;;;6.13;5.50;;;;;;;20.66;68.51;98575.78;3364587;29;20052;-74
2021/07/31 01:54:30;;;;;;;7.85;4.90;;;;;;;20.67;68.44;98579.28;3377557;29;20112;-75
2021/07/31 01:56:12;;;;;;;6.25;4.82;;;;;;;20.59;68.50;98567.19;3363420;29;20084;-73
2021/07/31 01:57:53;;;;;;;8.80;5.38;;;;;;;20.68;68.55;98578.19;3361227;29;20049;-75
2021/07/31 01:59:33;;;;;;;7.97;5.70;;;;;;;20.68;68.33;98580.91;3374421;29;20504;-74
2021/07/31 02:01:15;;;;;;;6.70;5.00;;;;;;;20.69;68.26;98579.81;3363569;29;20711;-76
2021/07/31 02:02:57;;;;;;;6.15;4.60;;;;;;;20.66;68.32;98577.69;3360918;29;20045;-75
2021/07/31 02:04:44;;;;;;;5.55;5.03;;;;;;;20.69;68.20;98579.81;3361676;29;20556;-76
2021/07/31 02:06:46;;;;;;;5.80;4.63;;;;;;;20.69;67.97;98583.31;3350714;29;20048;-75
2021/07/31 02:08:27;;;;;;;9.50;5.87;;;;;;;20.67;68.10;98576.56;3348294;29;20177;-75
2021/07/31 02:10:10;;;;;;;12.93;4.75;;;;;;;20.71;68.18;98582.22;3360769;29;20301;-76
2021/07/31 02:11:50;;;;;;;6.47;5.27;;;;;;;20.72;68.42;98584.63;3350311;29;20061;-73
2021/07/31 02:13:31;;;;;;;6.23;5.03;;;;;;;20.71;68.04;98577.63;3348191;29;20128;-74
2021/07/31 02:15:16;;;;;;;10.18;5.03;;;;;;;20.71;68.09;98584.94;3361440;29;20049;-75
2021/07/31 02:16:58;;;;;;;5.05;4.55;;;;;;;20.67;67.98;98580.06;3359220;29;20049;-74
2021/07/31 02:18:39;;;;;;;8.07;5.30;;;;;;;20.65;68.08;98584.16;3360498;29;20776;-74
2021/07/31 02:20:21;;;;;;;5.95;4.18;;;;;;;20.64;68.08;98577.94;3361065;29;20049;-75
2021/07/31 02:22:11;;;;;;;7.60;4.93;;;;;;;20.66;68.07;98583.09;3361862;29;20057;-75
2021/07/31 02:24:10;;;;;;;6.20;4.57;;;;;;;20.69;67.90;98591.44;3375792;29;20056;-75
2021/07/31 02:26:10;;;;;;;7.72;4.68;;;;;;;20.72;67.76;98584.63;3376936;29;20180;-74
2021/07/31 02:28:09;;;;;;;9.50;4.95;;;;;;;20.71;67.53;98591.16;3362708;29;20137;-74
2021/07/31 02:29:50;;;;;;;5.55;4.55;;;;;;;20.71;67.80;98583.03;3374304;29;20037;-76
2021/07/31 02:31:32;;;;;;;10.77;4.95;;;;;;;20.69;67.77;98587.94;3377494;29;20052;-75
2021/07/31 02:33:13;;;;;;;6.30;4.50;;;;;;;20.69;67.78;98596.03;3376883;29;20044;-74
2021/07/31 02:34:54;;;;;;;8.10;4.95;;;;;;;20.71;67.53;98590.34;3363179;29;20599;-76
2021/07/31 02:36:36;;;;;;;;;;;;;;;20.79;67.43;98590.53;3360502;29;20048;-74
2021/07/31 02:38:29;;;;;;;7.75;4.38;;;;;;;20.77;67.20;98587.28;3349195;29;20399;-75
2021/07/31 02:40:10;;;;;;;7.20;5.30;;;;;;;20.71;67.14;98574.91;3349916;29;20077;-74
2021/07/31 02:41:51;;;;;;;5.97;4.57;;;;;;;20.77;67.15;98581.06;3361439;29;20060;-76
2021/07/31 02:43:32;;;;;;;9.43;5.05;;;;;;;20.76;66.93;98585.69;3350257;29;20500;-75
2021/07/31 02:45:13;;;;;;;6.60;4.73;;;;;;;20.75;67.00;98575.94;3347659;29;20567;-75
2021/07/31 02:46:54;;;;;;;5.63;4.77;;;;;;;20.76;66.79;98569.44;3363723;29;20111;-75
2021/07/31 02:48:37;;;;;;;6.30;4.55;;;;;;;20.84;66.62;98592.38;3362570;29;20067;-74
2021/07/31 02:50:19;;;;;;;7.07;4.35;;;;;;;20.80;66.71;98578.56;3363770;29;20045;-73
2021/07/31 02:52:18;;;;;;;5.32;4.32;;;;;;;20.87;66.52;98579.03;3362813;29;20048;-75
2021/07/31 02:54:04;;;;;;;7.35;4.32;;;;;;;20.89;66.35;98590.41;3350029;29;20044;-76
2021/07/31 02:55:48;;;;;;;5.22;4.60;;;;;;;20.91;66.36;98577.38;3347910;29;20053;-74
2021/07/31 02:57:30;;;;;;;8.25;4.85;;;;;;;20.94;66.38;98580.59;3354267;29;20047;-74
2021/07/31 02:59:11;;;;;;;8.02;4.70;;;;;;;20.96;66.13;98578.41;3373943;29;20539;-75
2021/07/31 03:00:52;;;;;;;11.73;4.53;;;;;;;20.97;65.95;98580.81;3376608;29;20048;-74
2021/07/31 03:02:33;;;;;;;9.80;4.90;;;;;;;20.98;65.82;98581.63;3362420;29;20524;-75
2021/07/31 03:04:15;;;;;;;6.15;4.03;;;;;;;21.01;65.93;98586.47;3359927;29;20061;-74
2021/07/31 03:05:58;;;;;;;5.80;4.88;;;;;;;21.03;65.66;98585.06;3374204;29;20142;-74
2021/07/31 03:07:40;;;;;;;5.85;4.65;;;;;;;21.06;65.61;98592.63;3362401;29;20048;-74
2021/07/31 03:09:23;;;;;;;5.30;4.70;;;;;;;21.05;65.65;98590.22;3360339;29;20045;-74
2021/07/31 03:11:06;;;;;;;6.20;4.20;;;;;;;21.08;65.51;98592.34;3360359;29;20052;-75
2021/07/31 03:12:50;;;;;;;5.15;4.65;;;;;;;21.10;65.64;98598.28;3374347;29;20104;-76
2021/07/31 03:14:31;;;;;;;5.40;4.35;;;;;;;21.14;65.15;98591.16;3376403;29;20055;-74
2021/07/31 03:16:12;;;;;;;6.63;4.70;;;;;;;21.19;65.17;98599.22;3362567;29;20128;-74
2021/07/31 03:17:57;;;;;;;7.90;4.22;;;;;;;21.21;64.85;98594.31;3374206;29;20148;-74
2021/07/31 03:19:38;;;;;;;7.83;4.83;;;;;;;21.22;64.74;98593.25;3362246;29;20515;-75
2021/07/31 03:21:21;;;;;;;7.13;4.18;;;;;;;21.25;64.51;98598.06;3360535;29;20108;-75
2021/07/31 03:23:16;;;;;;;7.00;4.45;;;;;;;21.24;64.48;98601.88;3374741;29;20048;-76
2021/07/31 03:24:57;;;;;;;8.45;5.05;;;;;;;21.28;64.39;98597.50;3376434;29;20131;-76
2021/07/31 03:26:41;;;;;;;4.65;3.63;;;;;;;21.28;64.40;98594.78;3362491;29;20045;-76
2021/07/31 03:28:29;;;;;;;7.20;4.75;;;;;;;21.29;64.21;98599.09;3360731;29;20049;-74
2021/07/31 03:30:14;;;;;;;6.13;4.47;;;;;;;21.31;64.33;98596.09;3361085;29;20049;-74
2021/07/31 03:32:03;;;;;;;6.18;4.40;;;;;;;21.33;64.25;98602.84;3374655;29;20472;-76
2021/07/31 03:33:44;;;;;;;6.78;5.22;;;;;;;21.35;63.99;98597.94;3362553;29;20493;-75
2021/07/31 03:35:26;;;;;;;;;;;;;;;21.45;63.92;98597.03;3360524;29;20518;-75
2021/07/31 03:37:25;;;;;;;6.90;4.25;;;;;;;21.40;63.89;98594.38;3376807;29;19923;-74
2021/07/31 03:39:06;;;;;;;5.63;4.30;;;;;;;21.40;63.65;98599.81;3350246;29;20045;-75
2021/07/31 03:40:52;;;;;;;5.22;4.70;;;;;;;21.38;63.67;98604.72;3372148;29;20044;-74
2021/07/31 03:42:37;;;;;;;6.22;4.18;;;;;;;21.41;63.66;98600.63;3348710;29;20049;-74
2021/07/31 03:44:17;;;;;;;7.50;5.00;;;;;;;21.45;63.34;98601.63;3371809;29;21328;-75
2021/07/31 03:45:58;;;;;;;5.90;4.13;;;;;;;21.48;63.52;98601.84;3376625;29;20209;-73
2021/07/31 03:47:40;;;;;;;7.53;5.07;;;;;;;21.49;63.04;98602.66;3362488;29;20495;-74
2021/07/31 03:49:21;;;;;;;5.70;3.93;;;;;;;21.53;62.91;98599.06;3372544;29;20135;-74
2021/07/31 03:51:04;;;;;;;8.82;4.65;;;;;;;21.59;62.75;98602.50;3362240;29;20056;-74
2021/07/31 03:52:52;;;;;;;5.78;4.55;;;;;;;21.64;62.53;98604.34;3374382;29;20055;-75
2021/07/31 03:54:36;;;;;;;4.88;4.45;;;;;;;21.67;62.25;98603.75;3349375;29;20052;-73
2021/07/31 03:56:17;;;;;;;6.93;4.18;;;;;;;21.68;62.17;98603.44;3371902;29;20088;-75
2021/07/31 03:58:03;;;;;;;6.95;4.93;;;;;;;21.71;62.13;98611.03;3362281;29;20457;-75
2021/07/31 03:59:44;;;;;;;6.68;4.57;;;;;;;21.74;61.77;98610.44;3373730;29;20421;-74
2021/07/31 04:01:25;;;;;;;12.20;5.17;;;;;;;21.77;61.66;98609.84;3362448;29;20060;-74
2021/07/31 04:03:08;;;;;;;6.30;4.18;;;;;;;21.70;61.38;98598.53;3373442;29;20055;-76
2021/07/31 04:04:51;;;;;;;5.85;4.55;;;;;;;21.82;61.29;98617.09;3349043;29;20037;-75
2021/07/31 04:06:32;;;;;;;5.97;4.27;;;;;;;21.85;61.21;98610.28;3370961;29;20504;-75
2021/07/31 04:08:31;;;;;;;5.07;3.80;;;;;;;21.89;61.08;98605.84;3376238;29;20378;-74
2021/07/31 04:10:30;;;;;;;5.85;3.53;;;;;;;21.96;60.88;98600.84;3376089;29;20079;-75
2021/07/31 04:12:31;;;;;;;5.22;4.13;;;;;;;22.00;60.95;98607.31;3375668;29;20056;-75
2021/07/31 04:14:44;;;;;;;6.97;4.22;;;;;;;22.08;60.42;98617.50;3369426;29;20044;-73
2021/07/31 04:16:29;;;;;;;7.93;4.50;;;;;;;22.11;60.40;98616.88;3374842;29;20080;-74
2021/07/31 04:18:10;;;;;;;6.93;5.03;;;;;;;22.13;60.36;98617.41;3375396;29;20048;-75
2021/07/31 04:19:51;;;;;;;6.72;4.45;;;;;;;22.13;60.25;98614.69;3361894;29;20047;-75
2021/07/31 04:21:32;;;;;;;5.37;4.13;;;;;;;22.15;60.21;98608.94;3346450;29;20098;-73
2021/07/31 04:23:13;;;;;;;7.97;4.10;;;;;;;22.19;60.18;98610.00;3370629;29;20083;-73
2021/07/31 04:25:07;;;;;;;8.23;4.25;;;;;;;22.21;60.04;98616.75;3375634;29;20049;-74
2021/07/31 04:26:47;;;;;;;4.90;4.35;;;;;;;22.26;60.18;98625.91;3375653;29;20060;-74
2021/07/31 04:28:28;;;;;;;7.90;5.40;;;;;;;22.29;60.00;98611.75;3361931;29;20488;-74
2021/07/31 04:30:09;;;;;;;11.00;4.63;;;;;;;22.31;59.86;98612.25;3372725;29;20071;-73
2021/07/31 04:31:50;;;;;;;8.30;4.50;;;;;;;22.34;60.15;98606.22;3375757;29;20112;-73
2021/07/31 04:33:30;;;;;;;5.83;4.00;;;;;;;22.41;59.84;98623.75;3374926;29;20176;-74
2021/07/31 04:35:11;;;;;;;6.47;4.10;;;;;;;22.47;59.66;98610.06;3375320;29;20471;-73
2021/07/31 04:36:52;;;;;;;8.77;4.70;;;;;;;22.49;59.57;98616.81;3375779;29;20042;-75
2021/07/31 04:38:33;;;;;;;6.50;4.37;;;;;;;22.52;59.23;98624.38;3375472;29;20532;-75
2021/07/31 04:40:14;;;;;;;7.07;4.68;;;;;;;22.54;59.33;98614.00;3375705;29;20419;-75
2021/07/31 04:41:54;;;;;;;4.57;4.10;;;;;;;22.60;59.20;98620.94;3375850;29;20099;-73
2021/07/31 04:43:35;;;;;;;4.80;4.27;;;;;;;22.64;58.95;98611.09;3361247;29;20516;-75
2021/07/31 04:45:16;;;;;;;8.90;4.53;;;;;;;22.69;58.71;98607.50;3372829;29;20107;-74
2021/07/31 04:46:56;;;;;;;4.77;4.17;;;;;;;22.74;58.50;98609.28;3375163;29;20041;-75
2021/07/31 04:48:37;;;;;;;5.50;4.40;;;;;;;22.81;58.13;98610.50;3361642;29;20049;-76
2021/07/31 04:50:18;;;;;;;6.97;4.67;;;;;;;22.87;58.21;98608.47;3372904;29;20169;-75
2021/07/31 04:51:58;;;;;;;5.40;4.47;;;;;;;22.94;58.00;98614.31;3361851;29;20061;-75
2021/07/31 04:53:39;;;;;;;6.73;4.60;;;;;;;22.99;57.82;98606.09;3372287;29;20044;-75
2021/07/31 04:55:20;;;;;;;8.57;4.47;;;;;;;23.03;57.84;98606.31;3375616;29;20052;-75
2021/07/31 04:57:01;;;;;;;6.57;5.10;;;;;;;23.10;57.55;98605.88;3375787;29;20377;-76
2021/07/31 04:58:41;;;;;;;5.50;4.10;;;;;;;23.14;57.22;98602.25;3361737;29;20553;-75
2021/07/31 05:00:22;;;;;;;7.33;5.00;;;;;;;23.20;57.16;98605.69;3372772;29;20041;-74
2021/07/31 05:02:03;;;;;;;15.53;4.80;;;;;;;23.25;56.88;98609.09;3378102;29;20037;-74
2021/07/31 05:03:44;;;;;;;8.38;4.00;;;;;;;23.32;56.63;98613.31;3375271;29;20056;-76
2021/07/31 05:05:24;;;;;;;5.30;4.37;;;;;;;23.36;56.37;98604.22;3375544;29;20139;-74
2021/07/31 05:07:07;;;;;;;7.43;4.57;;;;;;;23.40;56.19;98607.94;3375485;29;20401;-74
2021/07/31 05:08:49;;;;;;;8.02;4.32;;;;;;;23.46;56.10;98606.72;3375851;29;20052;-74
2021/07/31 05:10:30;;;;;;;4.85;4.25;;;;;;;23.49;55.87;98608.84;3375390;29;20044;-74
2021/07/31 05:12:11;;;;;;;7.13;4.53;;;;;;;23.55;55.79;98611.47;3375321;29;20079;-75
2021/07/31 05:13:52;;;;;;;6.30;4.17;;;;;;;23.55;55.34;98611.47;3375414;29;20048;-77
2021/07/31 05:15:35;;;;;;;9.43;4.50;;;;;;;23.55;54.97;98600.56;3375446;29;20416;-76
2021/07/31 05:17:16;;;;;;;4.55;4.05;;;;;;;23.59;55.06;98610.50;3375565;29;20059;-74
2021/07/31 05:18:57;;;;;;;7.28;4.85;;;;;;;23.62;55.06;98606.38;3375053;29;20072;-74
2021/07/31 05:20:44;;;;;;;7.17;4.77;;;;;;;23.69;54.50;98612.19;3359923;29;20089;-74
2021/07/31 05:22:24;;;;;;;5.03;3.53;;;;;;;23.72;54.57;98600.72;3373292;29;20056;-74
2021/07/31 05:24:05;;;;;;;7.80;4.50;;;;;;;23.78;54.17;98609.59;3361530;29;20037;-74
2021/07/31 05:25:46;;;;;;;4.63;4.23;;;;;;;23.83;53.83;98610.28;3372698;29;20080;-74
2021/07/31 05:27:27;;;;;;;4.83;4.00;;;;;;;23.89;54.26;98616.41;3361411;29;20100;-74
2021/07/31 05:29:08;;;;;;;5.07;4.10;;;;;;;23.94;53.90;98614.34;3372358;29;20100;-75
2021/07/31 05:30:48;;;;;;;7.07;4.20;;;;;;;24.02;53.46;98614.72;3360792;29;20423;-74
2021/07/31 05:32:29;;;;;;;5.70;4.27;;;;;;;24.11;53.38;98616.41;3372340;29;20103;-75
2021/07/31 05:34:10;;;;;;;6.17;4.77;;;;;;;24.15;53.32;98602.97;3374897;29;20057;-75
2021/07/31 05:35:51;;;;;;;5.80;4.43;;;;;;;24.16;53.28;98607.28;3375453;29;20041;-74
2021/07/31 05:37:32;;;;;;;7.07;4.27;;;;;;;24.22;53.21;98613.44;3375443;29;20096;-74
2021/07/31 05:39:13;;;;;;;6.05;4.38;;;;;;;24.28;52.71;98610.25;3374751;29;20045;-75
2021/07/31 05:40:53;;;;;;;5.53;4.25;;;;;;;24.37;52.61;98610.31;3361631;29;20045;-75
2021/07/31 05:42:34;;;;;;;5.90;4.53;;;;;;;24.43;52.25;98608.25;3372692;29;20040;-77
2021/07/31 05:44:15;;;;;;;4.83;4.10;;;;;;;24.48;52.22;98613.59;3375416;29;20507;-75
2021/07/31 05:45:55;;;;;;;9.47;4.03;;;;;;;24.51;51.92;98602.88;3375326;29;20058;-74
2021/07/31 05:47:36;;;;;;;6.17;4.50;;;;;;;24.60;51.91;98605.63;3375276;29;20075;-75
2021/07/31 05:49:17;;;;;;;9.03;4.57;;;;;;;24.70;51.82;98608.06;3354648;29;20120;-74
2021/07/31 05:50:57;;;;;;;8.80;4.40;;;;;;;24.80;51.85;98613.25;3359728;29;20149;-74
2021/07/31 05:52:39;;;;;;;6.30;4.07;;;;;;;24.87;51.54;98606.56;3362365;29;20554;-74
2021/07/31 05:54:19;;;;;;;6.75;3.65;;;;;;;24.95;51.63;98609.28;3374721;29;20047;-75
2021/07/31 05:56:00;;;;;;;10.87;4.60;;;;;;;24.97;50.91;98614.44;3374488;29;20049;-75
2021/07/31 05:57:41;;;;;;;6.87;4.20;;;;;;;25.02;50.74;98615.09;3374206;29;20041;-75
2021/07/31 05:59:22;;;;;;;6.03;3.87;;;;;;;25.06;50.34;98620.72;3373963;29;20041;-74
2021/07/31 06:01:07;;;;;;;5.82;3.83;;;;;;;25.10;50.29;98624.41;3375026;29;20047;-74
2021/07/31 06:02:48;;;;;;;11.88;4.15;;;;;;;25.16;50.63;98619.66;3366479;29;20045;-74
2021/07/31 06:04:28;;;;;;;9.80;4.43;;;;;;;25.24;50.25;98622.38;3377302;29;20048;-74
2021/07/31 06:06:11;;;;;;;4.30;3.90;;;;;;;25.31;50.51;98618.41;3377454;29;20048;-73
2021/07/31 06:07:51;;;;;;;7.78;3.97;;;;;;;25.37;50.31;98619.84;3375440;29;20048;-74
2021/07/31 06:09:39;;;;;;;9.73;4.63;;;;;;;25.46;50.33;98615.22;3377231;29;20033;-76
2021/07/31 06:11:21;;;;;;;6.47;3.92;;;;;;;25.53;49.85;98612.81;3366333;29;20132;-74
2021/07/31 06:13:04;;;;;;;7.97;4.55;;;;;;;25.59;50.33;98608.81;3360586;29;20135;-74
2021/07/31 06:14:46;;;;;;;11.35;4.68;;;;;;;25.71;49.84;98601.88;3372578;29;20595;-75
2021/07/31 06:16:30;;;;;;;9.38;4.38;;;;;;;25.79;49.72;98604.63;3349947;29;20524;-74
2021/07/31 06:18:11;;;;;;;5.72;3.97;;;;;;;25.85;49.40;98608.03;3366518;29;20037;-74
2021/07/31 06:19:52;;;;;;;8.67;3.97;;;;;;;25.92;48.90;98604.78;3370302;29;21068;-72
2021/07/31 06:21:32;;;;;;;8.90;4.67;;;;;;;26.00;48.68;98604.81;3375497;29;20547;-74
2021/07/31 06:23:13;;;;;;;8.30;4.63;;;;;;;26.10;48.24;98611.88;3362945;29;20485;-74
2021/07/31 06:24:54;;;;;;;5.47;3.90;;;;;;;26.21;48.77;98604.13;3374525;29;20048;-74
2021/07/31 06:26:35;;;;;;;4.73;3.87;;;;;;;26.36;48.16;98600.06;3377015;29;20044;-75
2021/07/31 06:28:15;;;;;;;3.90;3.40;;;;;;;26.43;49.49;98606.63;3377525;29;20516;-73
2021/07/31 06:29:56;;;;;;;7.23;3.90;;;;;;;26.49;49.20;98605.34;3377115;29;20045;-70
2021/07/31 06:31:37;;;;;;;8.47;4.00;;;;;;;26.63;49.66;98599.69;3368192;29;20109;-71
2021/07/31 06:33:17;;;;;;;7.87;3.37;;;;;;;26.82;49.54;98599.25;3367474;29;20548;-70
2021/07/31 06:34:58;;;;;;;7.33;4.03;;;;;;;27.00;48.86;98607.38;3373238;29;20053;-73
2021/07/31 06:36:40;;;;;;;5.07;3.97;;;;;;;27.16;48.09;98602.97;3376803;29;20040;-73
2021/07/31 06:38:20;;;;;;;5.63;3.58;;;;;;;27.31;48.30;98607.06;3376943;29;20059;-73
2021/07/31 06:40:01;;;;;;;6.33;3.90;;;;;;;27.47;48.37;98610.00;3375229;29;20048;-75
2021/07/31 06:41:42;;;;;;;7.57;4.00;;;;;;;27.60;48.21;98604.28;3377203;29;20064;-72
2021/07/31 06:43:22;;;;;;;7.03;3.80;;;;;;;27.75;47.90;98604.81;3376890;29;20048;-72
2021/07/31 06:45:04;;;;;;;7.10;4.23;;;;;;;27.82;47.63;98602.38;3375156;29;20049;-73
2021/07/31 06:46:44;;;;;;;12.32;4.25;;;;;;;27.92;47.94;98595.69;3376890;29;20051;-71
2021/07/31 06:48:27;;;;;;;10.13;4.17;;;;;;;28.04;47.11;98603.94;3376666;29;20044;-75
2021/07/31 06:50:10;;;;;;;5.38;3.65;;;;;;;28.20;47.42;98607.66;3362077;29;20044;-73
2021/07/31 06:51:53;;;;;;;8.95;3.88;;;;;;;28.40;46.49;98602.47;3374426;29;20048;-73
2021/07/31 06:53:33;;;;;;;5.22;3.78;;;;;;;28.51;45.76;98611.88;3374953;29;20397;-75
2021/07/31 06:55:15;;;;;;;13.38;4.28;;;;;;;28.60;45.47;98606.25;3360738;29;20112;-73
2021/07/31 06:56:56;;;;;;;;;;;;;;;28.75;45.89;98602.06;3363546;29;20072;-73
2021/07/31 06:58:39;;;;;;;8.18;3.97;;;;;;;28.82;45.55;98603.09;3363022;29;20062;-75
2021/07/31 07:00:21;;;;;;;10.35;3.92;;;;;;;28.83;44.53;98587.44;3366869;29;20048;-74
2021/07/31 07:02:02;;;;;;;6.50;3.87;;;;;;;28.96;44.16;98596.47;3375385;29;20416;-76
2021/07/31 07:03:45;;;;;;;7.35;4.32;;;;;;;29.04;44.32;98606.50;3367223;29;20044;-77
2021/07/31 07:05:27;;;;;;;7.13;4.35;;;;;;;29.10;43.94;98602.44;3368566;29;20045;-76
2021/07/31 07:07:07;;;;;;;;;;;;;;;29.23;44.36;98601.28;3364399;29;20048;-72
2021/07/31 07:08:48;;;;;;;9.18;3.67;;;;;;;29.32;43.75;98592.91;3358991;29;20466;-75
2021/07/31 07:10:29;;;;;;;9.63;3.60;;;;;;;29.45;43.76;98599.16;3368305;29;20116;-74
2021/07/31 07:12:10;;;;;;;7.33;4.63;;;;;;;29.54;44.60;98602.59;3350544;29;20038;-74
2021/07/31 07:13:51;;;;;;;8.83;3.67;;;;;;;29.51;43.19;98609.56;3360732;29;20080;-72
2021/07/31 07:15:32;;;;;;;;;;;;;;;29.60;43.68;98608.63;3363409;29;20041;-72
2021/07/31 07:17:13;;;;;;;13.13;4.13;;;;;;;29.42;42.38;98614.38;3352121;29;20010;-72
2021/07/31 07:18:55;;;;;;;10.53;4.37;;;;;;;29.46;42.14;98614.50;3384251;29;20036;-72
2021/07/31 07:20:37;;;;;;;14.40;4.75;;;;;;;29.50;42.47;98616.19;3376936;29;20103;-70
2021/07/31 07:22:19;;;;;;;13.60;4.70;;;;;;;29.41;42.43;98612.00;3387145;29;20426;-71
2021/07/31 07:24:00;;;;;;;20.50;4.85;;;;;;;29.38;42.28;98618.97;3376249;29;20053;-70
2021/07/31 07:25:43;;;;;;;11.88;4.40;;;;;;;29.40;42.10;98622.16;3374520;29;20493;-71
2021/07/31 07:27:25;;;;;;;13.40;4.35;;;;;;;29.44;41.85;98619.53;3375068;29;20516;-71
2021/07/31 07:29:05;;;;;;;7.88;4.53;;;;;;;29.48;41.40;98624.00;3373879;29;20045;-72
2021/07/31 07:30:48;;;;;;;9.80;4.13;;;;;;;29.58;41.13;98628.19;3375156;29;20408;-70
2021/07/31 07:32:29;;;;;;;16.35;4.60;;;;;;;29.66;41.17;98616.31;3360436;29;20513;-71
2021/07/31 07:34:09;;;;;;;11.90;4.07;;;;;;;29.76;41.39;98626.78;3373277;29;20135;-74
2021/07/31 07:35:51;;;;;;;10.73;4.17;;;;;;;29.82;41.07;98621.88;3368789;29;20080;-75
2021/07/31 07:37:32;;;;;;;11.38;3.83;;;;;;;29.98;41.67;98621.91;3363560;29;20049;-75
2021/07/31 07:39:13;;;;;;;11.77;4.63;;;;;;;30.14;41.33;98619.22;3367529;29;20040;-75
2021/07/31 07:40:54;;;;;;;13.63;5.20;;;;;;;30.33;41.54;98624.84;3375554;29;20041;-75
2021/07/31 07:42:37;;;;;;;13.98;4.55;;;;;;;30.48;41.18;98623.28;3376222;29;20085;-76
2021/07/31 07:44:18;;;;;;;19.02;5.28;;;;;;;30.57;41.64;98618.41;3376322;29;20530;-73
2021/07/31 07:45:59;;;;;;;18.53;5.17;;;;;;;30.61;41.85;98626.75;3362074;29;20049;-74
2021/07/31 07:47:39;;;;;;;15.87;6.40;;;;;;;30.71;41.46;98623.47;3373436;29;20514;-74
2021/07/31 07:49:20;;;;;;;10.80;4.83;;;;;;;30.78;40.50;98629.16;3362285;29;20443;-74
2021/07/31 07:51:01;;;;;;;9.45;4.28;;;;;;;30.85;39.99;98628.56;3373033;29;20289;-72
2021/07/31 07:52:42;;;;;;;5.45;3.08;;;;;;;30.86;39.64;98628.19;3369698;29;20045;-76
2021/07/31 07:54:23;;;;;;;13.33;4.40;;;;;;;30.92;39.34;98609.47;3362240;29;20436;-69
2021/07/31 07:56:05;;;;;;;9.38;3.28;;;;;;;31.02;38.96;98624.63;3371075;29;20353;-69
2021/07/31 07:57:46;;;;;;;8.07;3.17;;;;;;;31.03;38.94;98628.97;3362671;29;20429;-71
2021/07/31 07:59:26;;;;;;;6.93;3.40;;;;;;;30.96;37.69;98623.31;3375067;29;20078;-75
2021/07/31 08:01:10;;;;;;;4.17;3.00;;;;;;;30.73;36.52;98621.16;3376417;29;20040;-77
2021/07/31 08:02:51;;;;;;;5.55;3.70;;;;;;;30.71;37.46;98622.69;3371936;29;20057;-76